sensor_id;sensor_type;location;lat;lon;timestamp;temperature;humidity
37806;DHT22;25082;50.870;0.022;2023-03-01T00:01:26;18.30;55.80
37806;DHT22;25082;50.870;0.022;2023-03-01T00:03:53;18.30;55.90
37806;DHT22;25082;50.870;0.022;2023-03-01T00:06:19;18.30;55.90
37806;DHT22;25082;50.870;0.022;2023-03-01T00:08:46;18.20;55.70
37806;DHT22;25082;50.870;0.022;2023-03-01T00:11:19;18.20;55.80
37806;DHT22;25082;50.870;0.022;2023-03-01T00:13:48;18.20;55.80
37806;DHT22;25082;50.870;0.022;2023-03-01T00:16:24;18.20;55.70
37806;DHT22;25082;50.870;0.022;2023-03-01T00:18:50;18.20;55.80
37806;DHT22;25082;50.870;0.022;2023-03-01T00:21:17;18.10;55.50
37806;DHT22;25082;50.870;0.022;2023-03-01T00:23:43;18.10;55.40
37806;DHT22;25082;50.870;0.022;2023-03-01T00:26:12;18.10;55.40
37806;DHT22;25082;50.870;0.022;2023-03-01T00:28:38;18.10;55.90
37806;DHT22;25082;50.870;0.022;2023-03-01T00:31:09;18.10;55.30
37806;DHT22;25082;50.870;0.022;2023-03-01T00:33:35;18.00;55.30
37806;DHT22;25082;50.870;0.022;2023-03-01T00:36:01;18.10;55.30
37806;DHT22;25082;50.870;0.022;2023-03-01T00:38:27;18.00;55.30
37806;DHT22;25082;50.870;0.022;2023-03-01T00:40:52;18.00;55.20
37806;DHT22;25082;50.870;0.022;2023-03-01T00:43:18;18.00;55.20
37806;DHT22;25082;50.870;0.022;2023-03-01T00:45:44;18.00;55.20
37806;DHT22;25082;50.870;0.022;2023-03-01T00:48:10;17.90;55.20
37806;DHT22;25082;50.870;0.022;2023-03-01T00:50:35;17.90;55.20
37806;DHT22;25082;50.870;0.022;2023-03-01T00:53:01;17.90;55.10
37806;DHT22;25082;50.870;0.022;2023-03-01T00:55:27;17.90;55.10
37806;DHT22;25082;50.870;0.022;2023-03-01T00:57:53;17.90;55.20
37806;DHT22;25082;50.870;0.022;2023-03-01T01:00:19;17.90;55.20
37806;DHT22;25082;50.870;0.022;2023-03-01T01:02:46;17.80;55.20
37806;DHT22;25082;50.870;0.022;2023-03-01T01:05:12;17.80;55.20
37806;DHT22;25082;50.870;0.022;2023-03-01T01:07:38;17.80;55.20
37806;DHT22;25082;50.870;0.022;2023-03-01T01:10:04;17.70;55.00
37806;DHT22;25082;50.870;0.022;2023-03-01T01:12:31;17.70;55.10
37806;DHT22;25082;50.870;0.022;2023-03-01T01:14:57;17.70;55.00
37806;DHT22;25082;50.870;0.022;2023-03-01T01:17:23;17.70;55.00
37806;DHT22;25082;50.870;0.022;2023-03-01T01:19:49;17.70;55.10
37806;DHT22;25082;50.870;0.022;2023-03-01T01:22:14;17.70;55.10
37806;DHT22;25082;50.870;0.022;2023-03-01T01:24:40;17.60;55.10
37806;DHT22;25082;50.870;0.022;2023-03-01T01:27:06;17.60;55.00
37806;DHT22;25082;50.870;0.022;2023-03-01T01:29:32;17.60;55.00
37806;DHT22;25082;50.870;0.022;2023-03-01T01:31:58;17.60;55.10
37806;DHT22;25082;50.870;0.022;2023-03-01T01:34:24;17.50;55.00
37806;DHT22;25082;50.870;0.022;2023-03-01T01:36:51;17.60;55.10
37806;DHT22;25082;50.870;0.022;2023-03-01T01:39:20;17.50;55.00
37806;DHT22;25082;50.870;0.022;2023-03-01T01:41:46;17.50;55.00
37806;DHT22;25082;50.870;0.022;2023-03-01T01:44:21;17.50;55.00
37806;DHT22;25082;50.870;0.022;2023-03-01T01:47:00;17.50;54.90
37806;DHT22;25082;50.870;0.022;2023-03-01T01:49:33;17.50;55.10
37806;DHT22;25082;50.870;0.022;2023-03-01T01:57:16;17.40;55.10
37806;DHT22;25082;50.870;0.022;2023-03-01T01:59:45;17.40;55.10
37806;DHT22;25082;50.870;0.022;2023-03-01T02:02:13;17.40;55.10
37806;DHT22;25082;50.870;0.022;2023-03-01T02:04:39;17.40;55.10
37806;DHT22;25082;50.870;0.022;2023-03-01T02:07:17;17.30;55.00
37806;DHT22;25082;50.870;0.022;2023-03-01T02:09:48;17.30;55.00
37806;DHT22;25082;50.870;0.022;2023-03-01T02:12:16;17.30;55.00
37806;DHT22;25082;50.870;0.022;2023-03-01T02:14:43;17.20;55.00
37806;DHT22;25082;50.870;0.022;2023-03-01T02:17:11;17.30;55.10
37806;DHT22;25082;50.870;0.022;2023-03-01T02:22:18;17.20;55.00
37806;DHT22;25082;50.870;0.022;2023-03-01T02:25:07;17.20;55.00
37806;DHT22;25082;50.870;0.022;2023-03-01T02:27:52;17.20;55.00
37806;DHT22;25082;50.870;0.022;2023-03-01T02:30:21;17.20;54.90
37806;DHT22;25082;50.870;0.022;2023-03-01T02:32:49;17.20;54.90
37806;DHT22;25082;50.870;0.022;2023-03-01T02:35:18;17.10;54.80
37806;DHT22;25082;50.870;0.022;2023-03-01T02:37:45;17.10;54.80
37806;DHT22;25082;50.870;0.022;2023-03-01T02:40:14;17.10;54.80
37806;DHT22;25082;50.870;0.022;2023-03-01T02:42:53;17.10;54.90
37806;DHT22;25082;50.870;0.022;2023-03-01T02:45:20;17.00;54.80
37806;DHT22;25082;50.870;0.022;2023-03-01T02:47:46;17.10;54.90
37806;DHT22;25082;50.870;0.022;2023-03-01T02:51:07;17.10;54.90
37806;DHT22;25082;50.870;0.022;2023-03-01T02:53:41;17.00;54.90
37806;DHT22;25082;50.870;0.022;2023-03-01T02:56:11;17.00;54.80
37806;DHT22;25082;50.870;0.022;2023-03-01T02:58:42;17.00;54.80
37806;DHT22;25082;50.870;0.022;2023-03-01T03:01:11;17.00;54.80
37806;DHT22;25082;50.870;0.022;2023-03-01T03:03:38;16.90;54.80
37806;DHT22;25082;50.870;0.022;2023-03-01T03:06:04;16.90;54.90
37806;DHT22;25082;50.870;0.022;2023-03-01T03:08:30;16.90;54.80
37806;DHT22;25082;50.870;0.022;2023-03-01T03:10:56;16.90;54.90
37806;DHT22;25082;50.870;0.022;2023-03-01T03:13:21;16.90;54.80
37806;DHT22;25082;50.870;0.022;2023-03-01T03:15:47;16.90;54.80
37806;DHT22;25082;50.870;0.022;2023-03-01T03:18:16;16.80;54.80
37806;DHT22;25082;50.870;0.022;2023-03-01T03:20:43;16.90;54.80
37806;DHT22;25082;50.870;0.022;2023-03-01T03:23:09;16.80;54.80
37806;DHT22;25082;50.870;0.022;2023-03-01T03:25:35;16.80;54.80
37806;DHT22;25082;50.870;0.022;2023-03-01T03:28:04;16.80;54.70
37806;DHT22;25082;50.870;0.022;2023-03-01T03:30:37;16.80;54.80
37806;DHT22;25082;50.870;0.022;2023-03-01T03:33:06;16.80;54.70
37806;DHT22;25082;50.870;0.022;2023-03-01T03:35:38;16.80;54.80
37806;DHT22;25082;50.870;0.022;2023-03-01T03:38:07;16.80;54.80
37806;DHT22;25082;50.870;0.022;2023-03-01T03:40:36;16.80;54.80
37806;DHT22;25082;50.870;0.022;2023-03-01T03:43:07;16.80;54.80
37806;DHT22;25082;50.870;0.022;2023-03-01T03:45:33;16.70;54.70
37806;DHT22;25082;50.870;0.022;2023-03-01T03:47:59;16.70;54.70
37806;DHT22;25082;50.870;0.022;2023-03-01T03:50:25;16.70;54.80
37806;DHT22;25082;50.870;0.022;2023-03-01T03:52:51;16.70;54.70
37806;DHT22;25082;50.870;0.022;2023-03-01T03:55:17;16.70;54.70
37806;DHT22;25082;50.870;0.022;2023-03-01T03:57:48;16.70;54.80
37806;DHT22;25082;50.870;0.022;2023-03-01T04:00:20;16.60;54.60
37806;DHT22;25082;50.870;0.022;2023-03-01T04:02:47;16.60;54.70
37806;DHT22;25082;50.870;0.022;2023-03-01T04:05:15;16.60;54.70
37806;DHT22;25082;50.870;0.022;2023-03-01T04:07:41;16.60;54.80
37806;DHT22;25082;50.870;0.022;2023-03-01T04:10:14;16.60;54.70
37806;DHT22;25082;50.870;0.022;2023-03-01T04:12:40;16.60;54.60
37806;DHT22;25082;50.870;0.022;2023-03-01T04:15:10;16.60;54.70
37806;DHT22;25082;50.870;0.022;2023-03-01T04:17:43;16.60;54.70
37806;DHT22;25082;50.870;0.022;2023-03-01T04:20:11;16.50;55.10
37806;DHT22;25082;50.870;0.022;2023-03-01T04:22:39;16.50;54.60
37806;DHT22;25082;50.870;0.022;2023-03-01T04:25:05;16.50;54.70
37806;DHT22;25082;50.870;0.022;2023-03-01T04:27:35;16.50;54.50
37806;DHT22;25082;50.870;0.022;2023-03-01T04:30:03;16.50;54.50
37806;DHT22;25082;50.870;0.022;2023-03-01T04:32:29;16.50;54.60
37806;DHT22;25082;50.870;0.022;2023-03-01T04:34:55;16.50;54.70
37806;DHT22;25082;50.870;0.022;2023-03-01T04:37:21;16.50;54.70
37806;DHT22;25082;50.870;0.022;2023-03-01T04:39:46;16.50;54.80
37806;DHT22;25082;50.870;0.022;2023-03-01T04:42:16;16.50;54.80
37806;DHT22;25082;50.870;0.022;2023-03-01T04:44:45;16.40;54.60
37806;DHT22;25082;50.870;0.022;2023-03-01T04:47:11;16.40;54.60
37806;DHT22;25082;50.870;0.022;2023-03-01T04:49:37;16.40;54.60
37806;DHT22;25082;50.870;0.022;2023-03-01T04:52:04;16.40;54.60
37806;DHT22;25082;50.870;0.022;2023-03-01T04:54:30;16.40;54.70
37806;DHT22;25082;50.870;0.022;2023-03-01T04:56:58;16.40;54.40
37806;DHT22;25082;50.870;0.022;2023-03-01T04:59:24;16.40;54.40
37806;DHT22;25082;50.870;0.022;2023-03-01T05:01:51;16.40;54.80
37806;DHT22;25082;50.870;0.022;2023-03-01T05:04:17;16.30;54.70
37806;DHT22;25082;50.870;0.022;2023-03-01T05:06:43;16.30;54.60
37806;DHT22;25082;50.870;0.022;2023-03-01T05:09:09;16.30;54.70
37806;DHT22;25082;50.870;0.022;2023-03-01T05:11:37;16.30;54.60
37806;DHT22;25082;50.870;0.022;2023-03-01T05:14:03;16.30;54.70
37806;DHT22;25082;50.870;0.022;2023-03-01T05:16:29;16.30;54.60
37806;DHT22;25082;50.870;0.022;2023-03-01T05:18:56;16.30;54.70
37806;DHT22;25082;50.870;0.022;2023-03-01T05:21:22;16.30;54.70
37806;DHT22;25082;50.870;0.022;2023-03-01T05:23:48;16.30;54.70
37806;DHT22;25082;50.870;0.022;2023-03-01T05:26:15;16.20;54.50
37806;DHT22;25082;50.870;0.022;2023-03-01T05:28:41;16.20;54.40
37806;DHT22;25082;50.870;0.022;2023-03-01T05:31:07;16.20;54.60
37806;DHT22;25082;50.870;0.022;2023-03-01T05:33:38;16.20;54.50
37806;DHT22;25082;50.870;0.022;2023-03-01T05:36:06;16.20;54.50
37806;DHT22;25082;50.870;0.022;2023-03-01T05:38:32;16.20;54.60
37806;DHT22;25082;50.870;0.022;2023-03-01T05:40:59;16.20;54.70
37806;DHT22;25082;50.870;0.022;2023-03-01T05:43:25;16.20;54.60
37806;DHT22;25082;50.870;0.022;2023-03-01T05:45:50;16.20;54.60
37806;DHT22;25082;50.870;0.022;2023-03-01T05:48:16;16.20;54.60
37806;DHT22;25082;50.870;0.022;2023-03-01T05:50:45;16.10;54.50
37806;DHT22;25082;50.870;0.022;2023-03-01T05:53:18;16.10;54.50
37806;DHT22;25082;50.870;0.022;2023-03-01T05:55:44;16.10;54.60
37806;DHT22;25082;50.870;0.022;2023-03-01T05:58:15;16.10;54.60
37806;DHT22;25082;50.870;0.022;2023-03-01T06:00:43;16.10;54.50
37806;DHT22;25082;50.870;0.022;2023-03-01T06:03:11;16.10;54.50
37806;DHT22;25082;50.870;0.022;2023-03-01T06:05:37;16.10;54.50
37806;DHT22;25082;50.870;0.022;2023-03-01T06:08:03;16.10;54.50
37806;DHT22;25082;50.870;0.022;2023-03-01T06:10:29;16.10;54.60
37806;DHT22;25082;50.870;0.022;2023-03-01T06:12:55;16.10;54.50
37806;DHT22;25082;50.870;0.022;2023-03-01T06:15:21;16.10;54.50
37806;DHT22;25082;50.870;0.022;2023-03-01T06:17:48;16.00;54.40
37806;DHT22;25082;50.870;0.022;2023-03-01T06:20:17;16.00;54.80
37806;DHT22;25082;50.870;0.022;2023-03-01T06:22:44;16.00;54.40
37806;DHT22;25082;50.870;0.022;2023-03-01T06:25:11;16.00;54.50
37806;DHT22;25082;50.870;0.022;2023-03-01T06:27:38;16.00;54.40
37806;DHT22;25082;50.870;0.022;2023-03-01T06:30:05;16.00;54.50
37806;DHT22;25082;50.870;0.022;2023-03-01T06:32:32;16.00;54.30
37806;DHT22;25082;50.870;0.022;2023-03-01T06:34:58;15.90;54.30
37806;DHT22;25082;50.870;0.022;2023-03-01T06:37:24;15.90;54.40
37806;DHT22;25082;50.870;0.022;2023-03-01T06:39:50;15.90;54.30
37806;DHT22;25082;50.870;0.022;2023-03-01T06:42:16;15.90;54.30
37806;DHT22;25082;50.870;0.022;2023-03-01T06:44:42;15.90;54.30
37806;DHT22;25082;50.870;0.022;2023-03-01T06:47:07;15.90;54.50
37806;DHT22;25082;50.870;0.022;2023-03-01T06:49:33;15.90;54.30
37806;DHT22;25082;50.870;0.022;2023-03-01T06:51:59;15.90;54.30
37806;DHT22;25082;50.870;0.022;2023-03-01T06:54:24;15.80;54.30
37806;DHT22;25082;50.870;0.022;2023-03-01T06:56:50;15.90;54.30
37806;DHT22;25082;50.870;0.022;2023-03-01T06:59:16;15.90;54.50
37806;DHT22;25082;50.870;0.022;2023-03-01T07:01:43;15.80;54.40
37806;DHT22;25082;50.870;0.022;2023-03-01T07:04:10;15.80;54.30
37806;DHT22;25082;50.870;0.022;2023-03-01T07:06:35;15.80;54.20
37806;DHT22;25082;50.870;0.022;2023-03-01T07:09:01;15.80;54.20
37806;DHT22;25082;50.870;0.022;2023-03-01T07:11:27;15.80;54.30
37806;DHT22;25082;50.870;0.022;2023-03-01T07:13:52;15.80;54.30
37806;DHT22;25082;50.870;0.022;2023-03-01T07:16:18;15.80;54.20
37806;DHT22;25082;50.870;0.022;2023-03-01T07:18:46;15.80;54.30
37806;DHT22;25082;50.870;0.022;2023-03-01T07:21:13;15.70;54.20
37806;DHT22;25082;50.870;0.022;2023-03-01T07:23:39;15.70;54.00
37806;DHT22;25082;50.870;0.022;2023-03-01T07:26:05;15.80;54.20
37806;DHT22;25082;50.870;0.022;2023-03-01T07:28:31;15.70;53.80
37806;DHT22;25082;50.870;0.022;2023-03-01T07:31:02;15.80;53.80
37806;DHT22;25082;50.870;0.022;2023-03-01T07:33:28;15.80;53.70
37806;DHT22;25082;50.870;0.022;2023-03-01T07:35:58;15.80;53.70
37806;DHT22;25082;50.870;0.022;2023-03-01T07:38:24;15.80;53.60
37806;DHT22;25082;50.870;0.022;2023-03-01T07:40:50;15.80;53.50
37806;DHT22;25082;50.870;0.022;2023-03-01T07:43:16;15.80;53.50
37806;DHT22;25082;50.870;0.022;2023-03-01T07:45:42;15.80;53.60
37806;DHT22;25082;50.870;0.022;2023-03-01T07:48:07;15.80;53.60
37806;DHT22;25082;50.870;0.022;2023-03-01T07:50:33;15.80;53.60
37806;DHT22;25082;50.870;0.022;2023-03-01T07:52:59;15.80;53.50
37806;DHT22;25082;50.870;0.022;2023-03-01T07:55:25;15.80;53.60
37806;DHT22;25082;50.870;0.022;2023-03-01T07:57:51;15.80;53.60
37806;DHT22;25082;50.870;0.022;2023-03-01T08:00:17;15.80;53.70
37806;DHT22;25082;50.870;0.022;2023-03-01T08:02:42;15.80;53.80
37806;DHT22;25082;50.870;0.022;2023-03-01T08:05:09;15.80;53.80
37806;DHT22;25082;50.870;0.022;2023-03-01T08:07:35;15.80;53.70
37806;DHT22;25082;50.870;0.022;2023-03-01T08:10:01;15.80;53.80
37806;DHT22;25082;50.870;0.022;2023-03-01T08:12:27;15.80;53.80
37806;DHT22;25082;50.870;0.022;2023-03-01T08:14:53;15.80;53.80
37806;DHT22;25082;50.870;0.022;2023-03-01T08:17:19;15.80;53.90
37806;DHT22;25082;50.870;0.022;2023-03-01T08:19:45;15.80;53.70
37806;DHT22;25082;50.870;0.022;2023-03-01T08:22:11;15.70;53.80
37806;DHT22;25082;50.870;0.022;2023-03-01T08:24:37;15.70;53.90
37806;DHT22;25082;50.870;0.022;2023-03-01T08:27:03;15.70;53.90
37806;DHT22;25082;50.870;0.022;2023-03-01T08:29:33;15.70;53.80
37806;DHT22;25082;50.870;0.022;2023-03-01T08:31:59;15.70;54.00
37806;DHT22;25082;50.870;0.022;2023-03-01T08:34:25;15.70;54.40
37806;DHT22;25082;50.870;0.022;2023-03-01T08:36:51;15.70;54.60
37806;DHT22;25082;50.870;0.022;2023-03-01T08:39:18;15.70;54.70
37806;DHT22;25082;50.870;0.022;2023-03-01T08:41:45;15.70;54.80
37806;DHT22;25082;50.870;0.022;2023-03-01T08:44:12;15.80;54.90
37806;DHT22;25082;50.870;0.022;2023-03-01T08:46:40;15.80;55.20
37806;DHT22;25082;50.870;0.022;2023-03-01T08:49:15;15.80;55.20
37806;DHT22;25082;50.870;0.022;2023-03-01T08:51:41;15.80;55.20
37806;DHT22;25082;50.870;0.022;2023-03-01T08:54:11;15.80;55.20
37806;DHT22;25082;50.870;0.022;2023-03-01T08:56:38;15.90;55.40
37806;DHT22;25082;50.870;0.022;2023-03-01T08:59:04;15.80;55.50
37806;DHT22;25082;50.870;0.022;2023-03-01T09:01:30;15.90;55.50
37806;DHT22;25082;50.870;0.022;2023-03-01T09:03:55;15.90;55.40
37806;DHT22;25082;50.870;0.022;2023-03-01T09:06:21;15.90;55.30
37806;DHT22;25082;50.870;0.022;2023-03-01T09:08:48;15.90;55.20
37806;DHT22;25082;50.870;0.022;2023-03-01T09:11:18;16.00;55.10
37806;DHT22;25082;50.870;0.022;2023-03-01T09:13:46;16.00;55.20
37806;DHT22;25082;50.870;0.022;2023-03-01T09:16:14;16.00;55.10
37806;DHT22;25082;50.870;0.022;2023-03-01T09:18:40;16.00;55.40
37806;DHT22;25082;50.870;0.022;2023-03-01T09:23:34;16.10;55.60
37806;DHT22;25082;50.870;0.022;2023-03-01T09:26:00;16.10;55.60
37806;DHT22;25082;50.870;0.022;2023-03-01T09:28:26;16.10;55.60
37806;DHT22;25082;50.870;0.022;2023-03-01T09:30:51;16.20;55.60
37806;DHT22;25082;50.870;0.022;2023-03-01T09:33:17;16.20;55.60
37806;DHT22;25082;50.870;0.022;2023-03-01T09:35:43;16.20;55.60
37806;DHT22;25082;50.870;0.022;2023-03-01T09:38:13;16.20;56.30
37806;DHT22;25082;50.870;0.022;2023-03-01T09:40:43;16.20;55.80
37806;DHT22;25082;50.870;0.022;2023-03-01T09:43:27;16.20;55.80
37806;DHT22;25082;50.870;0.022;2023-03-01T09:46:04;16.30;56.00
37806;DHT22;25082;50.870;0.022;2023-03-01T09:48:37;16.30;56.60
37806;DHT22;25082;50.870;0.022;2023-03-01T09:51:12;16.30;56.10
37806;DHT22;25082;50.870;0.022;2023-03-01T09:53:40;16.30;56.10
37806;DHT22;25082;50.870;0.022;2023-03-01T10:04:38;16.50;56.60
37806;DHT22;25082;50.870;0.022;2023-03-01T10:09:37;16.50;56.50
37806;DHT22;25082;50.870;0.022;2023-03-01T10:12:11;16.10;56.40
37806;DHT22;25082;50.870;0.022;2023-03-01T10:14:40;16.60;56.70
37806;DHT22;25082;50.870;0.022;2023-03-01T10:20:23;16.60;56.80
37806;DHT22;25082;50.870;0.022;2023-03-01T10:22:50;16.70;56.80
37806;DHT22;25082;50.870;0.022;2023-03-01T10:25:43;16.70;56.90
37806;DHT22;25082;50.870;0.022;2023-03-01T10:30:59;16.70;56.90
37806;DHT22;25082;50.870;0.022;2023-03-01T10:33:31;16.70;56.80
37806;DHT22;25082;50.870;0.022;2023-03-01T10:35:57;16.70;56.20
37806;DHT22;25082;50.870;0.022;2023-03-01T10:38:23;16.60;55.90
37806;DHT22;25082;50.870;0.022;2023-03-01T10:41:00;16.60;53.30
37806;DHT22;25082;50.870;0.022;2023-03-01T10:43:48;16.40;52.90
37806;DHT22;25082;50.870;0.022;2023-03-01T10:46:27;16.20;52.90
37806;DHT22;25082;50.870;0.022;2023-03-01T10:49:21;16.20;54.70
37806;DHT22;25082;50.870;0.022;2023-03-01T10:51:48;16.30;55.40
37806;DHT22;25082;50.870;0.022;2023-03-01T10:54:25;16.30;55.60
37806;DHT22;25082;50.870;0.022;2023-03-01T10:56:58;16.40;56.10
37806;DHT22;25082;50.870;0.022;2023-03-01T10:59:35;16.40;56.30
37806;DHT22;25082;50.870;0.022;2023-03-01T11:02:18;16.50;56.40
37806;DHT22;25082;50.870;0.022;2023-03-01T11:04:56;16.50;56.50
37806;DHT22;25082;50.870;0.022;2023-03-01T11:07:22;16.50;56.60
37806;DHT22;25082;50.870;0.022;2023-03-01T11:09:48;16.60;56.80
37806;DHT22;25082;50.870;0.022;2023-03-01T11:12:16;16.60;57.40
37806;DHT22;25082;50.870;0.022;2023-03-01T11:14:53;16.60;56.90
37806;DHT22;25082;50.870;0.022;2023-03-01T11:17:29;16.60;57.00
37806;DHT22;25082;50.870;0.022;2023-03-01T11:22:47;16.70;57.20
37806;DHT22;25082;50.870;0.022;2023-03-01T11:25:14;16.70;57.30
37806;DHT22;25082;50.870;0.022;2023-03-01T11:27:43;16.70;57.30
37806;DHT22;25082;50.870;0.022;2023-03-01T11:35:24;16.80;57.50
37806;DHT22;25082;50.870;0.022;2023-03-01T11:40:43;16.80;57.50
37806;DHT22;25082;50.870;0.022;2023-03-01T11:43:29;16.80;57.50
37806;DHT22;25082;50.870;0.022;2023-03-01T11:51:55;16.90;57.50
37806;DHT22;25082;50.870;0.022;2023-03-01T11:54:44;16.90;57.40
37806;DHT22;25082;50.870;0.022;2023-03-01T12:08:38;16.60;56.20
37806;DHT22;25082;50.870;0.022;2023-03-01T12:23:14;16.80;56.30
37806;DHT22;25082;50.870;0.022;2023-03-01T12:25:46;16.80;56.30
37806;DHT22;25082;50.870;0.022;2023-03-01T12:28:35;16.90;56.30
37806;DHT22;25082;50.870;0.022;2023-03-01T12:42:04;16.80;55.50
37806;DHT22;25082;50.870;0.022;2023-03-01T12:49:51;16.90;56.00
37806;DHT22;25082;50.870;0.022;2023-03-01T12:54:57;16.90;56.30
37806;DHT22;25082;50.870;0.022;2023-03-01T12:57:42;17.00;56.50
37806;DHT22;25082;50.870;0.022;2023-03-01T13:00:28;17.00;56.60
37806;DHT22;25082;50.870;0.022;2023-03-01T13:03:29;16.90;56.60
37806;DHT22;25082;50.870;0.022;2023-03-01T13:08:59;17.00;56.80
37806;DHT22;25082;50.870;0.022;2023-03-01T13:11:29;17.00;56.90
37806;DHT22;25082;50.870;0.022;2023-03-01T13:16:46;17.10;57.10
37806;DHT22;25082;50.870;0.022;2023-03-01T13:19:25;17.10;57.10
37806;DHT22;25082;50.870;0.022;2023-03-01T13:21:53;17.10;57.20
37806;DHT22;25082;50.870;0.022;2023-03-01T13:24:39;17.10;57.20
37806;DHT22;25082;50.870;0.022;2023-03-01T13:29:49;17.10;57.30
37806;DHT22;25082;50.870;0.022;2023-03-01T13:32:24;17.20;57.40
37806;DHT22;25082;50.870;0.022;2023-03-01T13:35:02;17.20;57.40
37806;DHT22;25082;50.870;0.022;2023-03-01T13:37:34;17.20;57.40
37806;DHT22;25082;50.870;0.022;2023-03-01T13:42:53;17.20;57.40
37806;DHT22;25082;50.870;0.022;2023-03-01T13:45:21;17.20;57.50
37806;DHT22;25082;50.870;0.022;2023-03-01T13:47:57;17.20;57.50
37806;DHT22;25082;50.870;0.022;2023-03-01T13:50:35;17.30;57.50
37806;DHT22;25082;50.870;0.022;2023-03-01T13:53:04;17.30;57.50
37806;DHT22;25082;50.870;0.022;2023-03-01T13:55:38;17.30;57.50
37806;DHT22;25082;50.870;0.022;2023-03-01T13:58:25;17.30;57.50
37806;DHT22;25082;50.870;0.022;2023-03-01T14:01:04;17.30;57.50
37806;DHT22;25082;50.870;0.022;2023-03-01T14:03:32;17.30;57.50
37806;DHT22;25082;50.870;0.022;2023-03-01T14:06:08;17.30;57.50
37806;DHT22;25082;50.870;0.022;2023-03-01T14:08:35;17.30;57.50
37806;DHT22;25082;50.870;0.022;2023-03-01T14:11:30;17.40;57.60
37806;DHT22;25082;50.870;0.022;2023-03-01T14:16:49;17.30;57.50
37806;DHT22;25082;50.870;0.022;2023-03-01T14:19:24;17.40;57.40
37806;DHT22;25082;50.870;0.022;2023-03-01T14:24:27;17.40;57.30
37806;DHT22;25082;50.870;0.022;2023-03-01T14:26:53;17.30;57.30
37806;DHT22;25082;50.870;0.022;2023-03-01T14:29:27;17.40;57.40
37806;DHT22;25082;50.870;0.022;2023-03-01T14:32:12;17.40;57.30
37806;DHT22;25082;50.870;0.022;2023-03-01T14:34:44;17.40;57.40
37806;DHT22;25082;50.870;0.022;2023-03-01T14:37:25;17.40;57.40
37806;DHT22;25082;50.870;0.022;2023-03-01T14:39:52;17.40;57.40
37806;DHT22;25082;50.870;0.022;2023-03-01T14:42:20;17.40;57.40
37806;DHT22;25082;50.870;0.022;2023-03-01T14:44:48;17.40;57.20
37806;DHT22;25082;50.870;0.022;2023-03-01T14:47:25;17.50;57.20
37806;DHT22;25082;50.870;0.022;2023-03-01T14:50:40;17.40;57.20
37806;DHT22;25082;50.870;0.022;2023-03-01T14:52:46;17.50;57.20
37806;DHT22;25082;50.870;0.022;2023-03-01T14:55:21;17.40;57.20
37806;DHT22;25082;50.870;0.022;2023-03-01T14:57:49;17.50;57.30
37806;DHT22;25082;50.870;0.022;2023-03-01T15:00:24;17.40;57.30
37806;DHT22;25082;50.870;0.022;2023-03-01T15:02:52;17.50;57.40
37806;DHT22;25082;50.870;0.022;2023-03-01T15:05:32;17.50;57.40
37806;DHT22;25082;50.870;0.022;2023-03-01T15:08:01;17.50;57.40
37806;DHT22;25082;50.870;0.022;2023-03-01T15:10:30;17.50;57.40
37806;DHT22;25082;50.870;0.022;2023-03-01T15:12:58;17.50;57.40
37806;DHT22;25082;50.870;0.022;2023-03-01T15:15:43;17.60;57.50
37806;DHT22;25082;50.870;0.022;2023-03-01T15:18:26;17.60;57.50
37806;DHT22;25082;50.870;0.022;2023-03-01T15:20:52;17.60;57.40
37806;DHT22;25082;50.870;0.022;2023-03-01T15:23:27;17.60;57.30
37806;DHT22;25082;50.870;0.022;2023-03-01T15:25:54;17.60;57.30
37806;DHT22;25082;50.870;0.022;2023-03-01T15:28:49;17.60;57.30
37806;DHT22;25082;50.870;0.022;2023-03-01T15:31:22;17.60;57.20
37806;DHT22;25082;50.870;0.022;2023-03-01T15:33:48;17.60;57.20
37806;DHT22;25082;50.870;0.022;2023-03-01T15:36:32;17.70;57.20
37806;DHT22;25082;50.870;0.022;2023-03-01T15:38:59;17.70;57.20
37806;DHT22;25082;50.870;0.022;2023-03-01T15:41:37;17.60;56.70
37806;DHT22;25082;50.870;0.022;2023-03-01T15:46:50;17.60;56.50
37806;DHT22;25082;50.870;0.022;2023-03-01T15:49:40;17.60;56.60
37806;DHT22;25082;50.870;0.022;2023-03-01T15:52:39;17.70;56.60
37806;DHT22;25082;50.870;0.022;2023-03-01T15:55:40;17.70;56.60
37806;DHT22;25082;50.870;0.022;2023-03-01T15:58:12;17.70;57.20
37806;DHT22;25082;50.870;0.022;2023-03-01T16:00:38;17.70;56.60
37806;DHT22;25082;50.870;0.022;2023-03-01T16:03:05;17.70;56.70
37806;DHT22;25082;50.870;0.022;2023-03-01T16:05:33;17.70;56.70
37806;DHT22;25082;50.870;0.022;2023-03-01T16:08:03;17.80;56.80
37806;DHT22;25082;50.870;0.022;2023-03-01T16:10:30;17.70;56.70
37806;DHT22;25082;50.870;0.022;2023-03-01T16:12:56;17.70;56.80
37806;DHT22;25082;50.870;0.022;2023-03-01T16:15:25;17.80;56.90
37806;DHT22;25082;50.870;0.022;2023-03-01T16:17:51;17.80;57.50
37806;DHT22;25082;50.870;0.022;2023-03-01T16:20:17;17.80;56.90
37806;DHT22;25082;50.870;0.022;2023-03-01T16:22:44;17.80;56.90
37806;DHT22;25082;50.870;0.022;2023-03-01T16:25:11;17.80;57.20
37806;DHT22;25082;50.870;0.022;2023-03-01T16:27:37;17.80;57.20
37806;DHT22;25082;50.870;0.022;2023-03-01T16:30:05;17.80;57.30
37806;DHT22;25082;50.870;0.022;2023-03-01T16:32:31;17.80;57.40
37806;DHT22;25082;50.870;0.022;2023-03-01T16:34:57;17.80;57.30
37806;DHT22;25082;50.870;0.022;2023-03-01T16:37:22;17.80;57.30
37806;DHT22;25082;50.870;0.022;2023-03-01T16:39:48;17.80;57.30
37806;DHT22;25082;50.870;0.022;2023-03-01T16:42:17;17.80;57.30
37806;DHT22;25082;50.870;0.022;2023-03-01T16:44:43;17.80;57.30
37806;DHT22;25082;50.870;0.022;2023-03-01T16:47:09;17.90;57.40
37806;DHT22;25082;50.870;0.022;2023-03-01T16:49:34;17.80;57.40
37806;DHT22;25082;50.870;0.022;2023-03-01T16:52:00;17.90;57.50
37806;DHT22;25082;50.870;0.022;2023-03-01T16:54:26;17.90;57.60
37806;DHT22;25082;50.870;0.022;2023-03-01T16:56:51;17.90;57.80
37806;DHT22;25082;50.870;0.022;2023-03-01T16:59:17;17.90;58.10
37806;DHT22;25082;50.870;0.022;2023-03-01T17:01:44;17.90;58.20
37806;DHT22;25082;50.870;0.022;2023-03-01T17:04:11;17.90;58.10
37806;DHT22;25082;50.870;0.022;2023-03-01T17:06:38;17.90;57.90
37806;DHT22;25082;50.870;0.022;2023-03-01T17:09:03;17.90;57.80
37806;DHT22;25082;50.870;0.022;2023-03-01T17:11:30;17.90;57.70
37806;DHT22;25082;50.870;0.022;2023-03-01T17:13:56;17.90;57.60
37806;DHT22;25082;50.870;0.022;2023-03-01T17:16:22;17.90;57.60
37806;DHT22;25082;50.870;0.022;2023-03-01T17:18:48;17.90;57.50
37806;DHT22;25082;50.870;0.022;2023-03-01T17:21:14;17.90;57.50
37806;DHT22;25082;50.870;0.022;2023-03-01T17:23:43;17.90;57.50
37806;DHT22;25082;50.870;0.022;2023-03-01T17:26:09;17.90;57.40
37806;DHT22;25082;50.870;0.022;2023-03-01T17:28:36;17.90;57.40
37806;DHT22;25082;50.870;0.022;2023-03-01T17:31:03;17.90;57.30